sensor_id;sensor_type;location;lat;lon;timestamp;pressure;altitude;pressure_sealevel;temperature;humidity
76819;BME280;65772;51.096;17.006;2023-02-13T00:00:49;102317.55;;;8.06;72.10
76819;BME280;65772;51.096;17.006;2023-02-13T00:03:17;102314.45;;;8.05;71.82
76819;BME280;65772;51.096;17.006;2023-02-13T00:05:45;102318.14;;;8.04;71.92
76819;BME280;65772;51.096;17.006;2023-02-13T00:08:13;102318.76;;;8.03;71.67
76819;BME280;65772;51.096;17.006;2023-02-13T00:10:40;102317.24;;;8.01;71.68
76819;BME280;65772;51.096;17.006;2023-02-13T00:13:08;102313.20;;;7.99;71.69
76819;BME280;65772;51.096;17.006;2023-02-13T00:15:36;102309.77;;;8.04;71.73
76819;BME280;65772;51.096;17.006;2023-02-13T00:18:05;102308.24;;;8.09;71.45
76819;BME280;65772;51.096;17.006;2023-02-13T00:20:32;102308.91;;;8.14;71.36
76819;BME280;65772;51.096;17.006;2023-02-13T00:23:00;102305.60;;;8.17;71.37
76819;BME280;65772;51.096;17.006;2023-02-13T00:25:28;102306.92;;;8.19;71.16
76819;BME280;65772;51.096;17.006;2023-02-13T00:27:56;102305.75;;;8.19;71.16
76819;BME280;65772;51.096;17.006;2023-02-13T00:30:23;102303.24;;;8.20;71.13
76819;BME280;65772;51.096;17.006;2023-02-13T00:32:51;102301.09;;;8.21;71.28
76819;BME280;65772;51.096;17.006;2023-02-13T00:35:19;102304.00;;;8.21;70.97
76819;BME280;65772;51.096;17.006;2023-02-13T00:37:47;102302.47;;;8.19;70.72
76819;BME280;65772;51.096;17.006;2023-02-13T00:40:14;102305.80;;;8.15;70.85
76819;BME280;65772;51.096;17.006;2023-02-13T00:42:42;102309.94;;;8.14;70.79
76819;BME280;65772;51.096;17.006;2023-02-13T00:45:10;102305.67;;;8.13;70.88
76819;BME280;65772;51.096;17.006;2023-02-13T00:47:38;102307.91;;;8.11;70.74
76819;BME280;65772;51.096;17.006;2023-02-13T00:50:07;102309.11;;;8.07;70.48
76819;BME280;65772;51.096;17.006;2023-02-13T00:52:37;102310.70;;;8.03;70.52
76819;BME280;65772;51.096;17.006;2023-02-13T00:55:06;102309.48;;;7.95;70.15
76819;BME280;65772;51.096;17.006;2023-02-13T00:57:36;102306.73;;;7.90;70.40
76819;BME280;65772;51.096;17.006;2023-02-13T01:00:06;102306.02;;;7.88;70.29
76819;BME280;65772;51.096;17.006;2023-02-13T01:02:34;102309.64;;;7.86;70.22
76819;BME280;65772;51.096;17.006;2023-02-13T01:05:02;102311.78;;;7.89;70.47
76819;BME280;65772;51.096;17.006;2023-02-13T01:07:30;102307.73;;;7.94;70.35
76819;BME280;65772;51.096;17.006;2023-02-13T01:09:58;102307.13;;;7.98;70.28
76819;BME280;65772;51.096;17.006;2023-02-13T01:12:27;102307.55;;;8.01;70.17
76819;BME280;65772;51.096;17.006;2023-02-13T01:14:54;102302.96;;;8.04;70.12
76819;BME280;65772;51.096;17.006;2023-02-13T01:17:22;102303.80;;;8.06;70.20
76819;BME280;65772;51.096;17.006;2023-02-13T01:19:50;102303.89;;;8.07;70.13
76819;BME280;65772;51.096;17.006;2023-02-13T01:22:18;102301.73;;;8.03;69.87
76819;BME280;65772;51.096;17.006;2023-02-13T01:24:49;102302.16;;;8.00;69.80
76819;BME280;65772;51.096;17.006;2023-02-13T01:27:17;102302.17;;;7.98;69.86
76819;BME280;65772;51.096;17.006;2023-02-13T01:29:45;102298.27;;;7.93;69.69
76819;BME280;65772;51.096;17.006;2023-02-13T01:32:12;102296.45;;;7.87;69.73
76819;BME280;65772;51.096;17.006;2023-02-13T01:34:40;102294.38;;;7.84;69.59
76819;BME280;65772;51.096;17.006;2023-02-13T01:37:08;102295.57;;;7.84;69.81
76819;BME280;65772;51.096;17.006;2023-02-13T01:39:36;102292.77;;;7.82;69.76
76819;BME280;65772;51.096;17.006;2023-02-13T01:42:04;102296.21;;;7.83;69.97
76819;BME280;65772;51.096;17.006;2023-02-13T01:44:48;102289.79;;;7.81;69.88
76819;BME280;65772;51.096;17.006;2023-02-13T01:47:19;102295.23;;;7.81;69.88
76819;BME280;65772;51.096;17.006;2023-02-13T01:49:51;102292.30;;;7.83;69.98
76819;BME280;65772;51.096;17.006;2023-02-13T01:52:22;102288.48;;;7.85;70.06
76819;BME280;65772;51.096;17.006;2023-02-13T01:54:50;102290.17;;;7.89;69.81
76819;BME280;65772;51.096;17.006;2023-02-13T01:57:19;102288.54;;;7.92;69.76
76819;BME280;65772;51.096;17.006;2023-02-13T01:59:53;102287.88;;;7.95;69.61
76819;BME280;65772;51.096;17.006;2023-02-13T02:02:23;102286.85;;;7.97;69.51
76819;BME280;65772;51.096;17.006;2023-02-13T02:04:52;102279.40;;;8.00;69.61
76819;BME280;65772;51.096;17.006;2023-02-13T02:07:23;102272.86;;;8.01;69.33
76819;BME280;65772;51.096;17.006;2023-02-13T02:09:54;102270.52;;;8.02;69.29
76819;BME280;65772;51.096;17.006;2023-02-13T02:12:26;102271.81;;;8.01;69.32
76819;BME280;65772;51.096;17.006;2023-02-13T02:14:58;102270.90;;;8.00;69.27
76819;BME280;65772;51.096;17.006;2023-02-13T02:17:30;102273.32;;;8.01;69.36
76819;BME280;65772;51.096;17.006;2023-02-13T02:20:05;102274.46;;;8.02;69.44
76819;BME280;65772;51.096;17.006;2023-02-13T02:22:57;102275.23;;;8.01;69.43
76819;BME280;65772;51.096;17.006;2023-02-13T02:26:11;102276.58;;;8.01;69.31
76819;BME280;65772;51.096;17.006;2023-02-13T02:32:02;102269.92;;;8.01;69.30
76819;BME280;65772;51.096;17.006;2023-02-13T02:34:44;102269.27;;;8.01;69.31
76819;BME280;65772;51.096;17.006;2023-02-13T02:37:26;102266.38;;;8.01;69.36
76819;BME280;65772;51.096;17.006;2023-02-13T02:40:06;102268.84;;;8.00;69.22
76819;BME280;65772;51.096;17.006;2023-02-13T02:42:48;102269.98;;;7.99;69.46
76819;BME280;65772;51.096;17.006;2023-02-13T02:45:23;102266.71;;;7.99;69.49
76819;BME280;65772;51.096;17.006;2023-02-13T02:47:58;102262.30;;;8.01;69.33
76819;BME280;65772;51.096;17.006;2023-02-13T02:50:50;102266.24;;;8.01;69.15
76819;BME280;65772;51.096;17.006;2023-02-13T02:53:30;102269.40;;;8.03;69.15
76819;BME280;65772;51.096;17.006;2023-02-13T02:56:04;102263.91;;;8.05;69.14
76819;BME280;65772;51.096;17.006;2023-02-13T02:58:38;102263.24;;;8.05;69.14
76819;BME280;65772;51.096;17.006;2023-02-13T03:01:29;102266.21;;;8.06;69.05
76819;BME280;65772;51.096;17.006;2023-02-13T03:04:19;102273.12;;;8.07;69.30
76819;BME280;65772;51.096;17.006;2023-02-13T03:07:10;102273.52;;;8.08;69.42
76819;BME280;65772;51.096;17.006;2023-02-13T03:09:41;102277.63;;;8.09;69.21
76819;BME280;65772;51.096;17.006;2023-02-13T03:12:35;102275.92;;;8.08;69.34
76819;BME280;65772;51.096;17.006;2023-02-13T03:15:24;102272.98;;;8.05;69.23
76819;BME280;65772;51.096;17.006;2023-02-13T03:17:53;102269.13;;;8.01;69.40
76819;BME280;65772;51.096;17.006;2023-02-13T03:20:45;102262.27;;;7.96;69.23
76819;BME280;65772;51.096;17.006;2023-02-13T03:23:46;102261.80;;;7.90;69.26
76819;BME280;65772;51.096;17.006;2023-02-13T03:26:34;102254.32;;;7.85;69.21
76819;BME280;65772;51.096;17.006;2023-02-13T03:29:19;102258.53;;;7.79;69.39
76819;BME280;65772;51.096;17.006;2023-02-13T03:32:14;102265.89;;;7.73;69.43
76819;BME280;65772;51.096;17.006;2023-02-13T03:34:47;102268.20;;;7.67;69.42
76819;BME280;65772;51.096;17.006;2023-02-13T03:37:39;102271.79;;;7.65;69.46
76819;BME280;65772;51.096;17.006;2023-02-13T03:40:27;102265.59;;;7.66;69.66
76819;BME280;65772;51.096;17.006;2023-02-13T03:43:06;102270.66;;;7.66;69.79
76819;BME280;65772;51.096;17.006;2023-02-13T03:45:38;102267.42;;;7.66;69.71
76819;BME280;65772;51.096;17.006;2023-02-13T03:48:23;102265.27;;;7.67;69.84
76819;BME280;65772;51.096;17.006;2023-02-13T03:51:13;102270.09;;;7.67;69.90
76819;BME280;65772;51.096;17.006;2023-02-13T03:53:45;102272.86;;;7.68;70.07
76819;BME280;65772;51.096;17.006;2023-02-13T03:56:15;102273.74;;;7.69;70.10
76819;BME280;65772;51.096;17.006;2023-02-13T03:59:04;102278.23;;;7.69;70.27
76819;BME280;65772;51.096;17.006;2023-02-13T04:01:45;102277.87;;;7.69;70.30
76819;BME280;65772;51.096;17.006;2023-02-13T04:04:23;102275.35;;;7.69;70.28
76819;BME280;65772;51.096;17.006;2023-02-13T04:06:56;102270.98;;;7.70;70.34
76819;BME280;65772;51.096;17.006;2023-02-13T04:09:27;102271.52;;;7.68;70.47
76819;BME280;65772;51.096;17.006;2023-02-13T04:12:00;102272.21;;;7.66;70.54
76819;BME280;65772;51.096;17.006;2023-02-13T04:14:35;102271.94;;;7.65;70.68
76819;BME280;65772;51.096;17.006;2023-02-13T04:17:06;102270.15;;;7.64;70.98
76819;BME280;65772;51.096;17.006;2023-02-13T04:19:36;102269.34;;;7.61;70.96
76819;BME280;65772;51.096;17.006;2023-02-13T04:22:05;102268.46;;;7.59;71.02
76819;BME280;65772;51.096;17.006;2023-02-13T04:24:33;102265.14;;;7.60;71.16
76819;BME280;65772;51.096;17.006;2023-02-13T04:27:01;102258.30;;;7.60;71.25
76819;BME280;65772;51.096;17.006;2023-02-13T04:29:29;102258.08;;;7.59;71.50
76819;BME280;65772;51.096;17.006;2023-02-13T04:31:57;102254.34;;;7.59;71.53
76819;BME280;65772;51.096;17.006;2023-02-13T04:34:25;102252.16;;;7.57;71.61
76819;BME280;65772;51.096;17.006;2023-02-13T04:36:52;102252.27;;;7.56;71.76
76819;BME280;65772;51.096;17.006;2023-02-13T04:39:20;102257.48;;;7.53;71.94
76819;BME280;65772;51.096;17.006;2023-02-13T04:41:48;102259.36;;;7.51;72.04
76819;BME280;65772;51.096;17.006;2023-02-13T04:44:16;102259.21;;;7.49;72.25
76819;BME280;65772;51.096;17.006;2023-02-13T04:46:43;102259.90;;;7.47;72.46
76819;BME280;65772;51.096;17.006;2023-02-13T04:49:11;102257.79;;;7.46;72.44
76819;BME280;65772;51.096;17.006;2023-02-13T04:51:39;102255.28;;;7.44;72.50
76819;BME280;65772;51.096;17.006;2023-02-13T04:54:07;102254.46;;;7.42;72.78
76819;BME280;65772;51.096;17.006;2023-02-13T04:56:35;102256.79;;;7.39;72.76
76819;BME280;65772;51.096;17.006;2023-02-13T04:59:02;102259.50;;;7.37;72.92
76819;BME280;65772;51.096;17.006;2023-02-13T05:01:30;102252.16;;;7.40;72.96
76819;BME280;65772;51.096;17.006;2023-02-13T05:03:58;102246.48;;;7.42;73.02
76819;BME280;65772;51.096;17.006;2023-02-13T05:06:26;102248.02;;;7.42;73.01
76819;BME280;65772;51.096;17.006;2023-02-13T05:08:54;102245.13;;;7.45;73.18
76819;BME280;65772;51.096;17.006;2023-02-13T05:11:21;102243.16;;;7.45;73.10
76819;BME280;65772;51.096;17.006;2023-02-13T05:13:49;102240.30;;;7.48;73.30
76819;BME280;65772;51.096;17.006;2023-02-13T05:16:17;102241.08;;;7.49;73.24
76819;BME280;65772;51.096;17.006;2023-02-13T05:18:46;102242.59;;;7.47;73.35
76819;BME280;65772;51.096;17.006;2023-02-13T05:21:14;102244.38;;;7.44;73.29
76819;BME280;65772;51.096;17.006;2023-02-13T05:23:59;102243.82;;;7.40;73.55
76819;BME280;65772;51.096;17.006;2023-02-13T05:26:27;102246.79;;;7.39;73.51
76819;BME280;65772;51.096;17.006;2023-02-13T05:28:55;102245.80;;;7.38;73.56
76819;BME280;65772;51.096;17.006;2023-02-13T05:31:41;102245.79;;;7.37;73.57
76819;BME280;65772;51.096;17.006;2023-02-13T05:34:09;102244.35;;;7.36;73.73
76819;BME280;65772;51.096;17.006;2023-02-13T05:36:37;102246.17;;;7.40;73.72
76819;BME280;65772;51.096;17.006;2023-02-13T05:39:04;102249.55;;;7.43;73.74
76819;BME280;65772;51.096;17.006;2023-02-13T05:41:32;102247.64;;;7.44;73.79
76819;BME280;65772;51.096;17.006;2023-02-13T05:44:00;102249.25;;;7.43;73.84
76819;BME280;65772;51.096;17.006;2023-02-13T05:46:28;102245.35;;;7.38;74.04
76819;BME280;65772;51.096;17.006;2023-02-13T05:48:56;102250.52;;;7.34;73.99
76819;BME280;65772;51.096;17.006;2023-02-13T05:51:24;102252.93;;;7.32;73.94
76819;BME280;65772;51.096;17.006;2023-02-13T05:53:54;102253.10;;;7.30;73.92
76819;BME280;65772;51.096;17.006;2023-02-13T05:56:22;102258.49;;;7.29;74.06
76819;BME280;65772;51.096;17.006;2023-02-13T05:58:52;102259.73;;;7.27;74.39
76819;BME280;65772;51.096;17.006;2023-02-13T06:01:21;102263.22;;;7.27;74.29
76819;BME280;65772;51.096;17.006;2023-02-13T06:03:50;102258.13;;;7.27;74.26
76819;BME280;65772;51.096;17.006;2023-02-13T06:06:18;102256.05;;;7.26;74.35
76819;BME280;65772;51.096;17.006;2023-02-13T06:08:46;102258.39;;;7.30;74.41
76819;BME280;65772;51.096;17.006;2023-02-13T06:11:14;102258.16;;;7.32;74.35
76819;BME280;65772;51.096;17.006;2023-02-13T06:13:42;102258.41;;;7.35;74.36
76819;BME280;65772;51.096;17.006;2023-02-13T06:16:10;102264.37;;;7.40;74.35
76819;BME280;65772;51.096;17.006;2023-02-13T06:18:38;102266.77;;;7.43;74.48
76819;BME280;65772;51.096;17.006;2023-02-13T06:21:07;102270.25;;;7.46;74.37
76819;BME280;65772;51.096;17.006;2023-02-13T06:23:35;102269.21;;;7.48;74.35
76819;BME280;65772;51.096;17.006;2023-02-13T06:26:04;102269.13;;;7.47;74.32
76819;BME280;65772;51.096;17.006;2023-02-13T06:28:33;102272.86;;;7.47;74.33
76819;BME280;65772;51.096;17.006;2023-02-13T06:31:01;102274.52;;;7.47;74.42
76819;BME280;65772;51.096;17.006;2023-02-13T06:33:29;102280.54;;;7.48;74.56
76819;BME280;65772;51.096;17.006;2023-02-13T06:35:57;102283.73;;;7.47;74.59
76819;BME280;65772;51.096;17.006;2023-02-13T06:38:25;102281.86;;;7.47;74.60
76819;BME280;65772;51.096;17.006;2023-02-13T06:40:57;102284.79;;;7.46;74.46
76819;BME280;65772;51.096;17.006;2023-02-13T06:43:25;102285.91;;;7.45;74.41
76819;BME280;65772;51.096;17.006;2023-02-13T06:45:53;102288.50;;;7.50;74.50
76819;BME280;65772;51.096;17.006;2023-02-13T06:48:21;102284.47;;;7.53;74.35
76819;BME280;65772;51.096;17.006;2023-02-13T06:50:49;102286.93;;;7.56;74.38
76819;BME280;65772;51.096;17.006;2023-02-13T06:53:18;102287.50;;;7.59;74.39
76819;BME280;65772;51.096;17.006;2023-02-13T06:55:51;102290.02;;;7.61;74.08
76819;BME280;65772;51.096;17.006;2023-02-13T06:58:20;102287.23;;;7.62;74.29
76819;BME280;65772;51.096;17.006;2023-02-13T07:00:48;102286.22;;;7.63;74.37
76819;BME280;65772;51.096;17.006;2023-02-13T07:03:16;102283.70;;;7.63;74.21
76819;BME280;65772;51.096;17.006;2023-02-13T07:05:44;102284.96;;;7.61;74.28
76819;BME280;65772;51.096;17.006;2023-02-13T07:08:12;102283.20;;;7.61;74.10
76819;BME280;65772;51.096;17.006;2023-02-13T07:10:41;102286.70;;;7.60;74.34
76819;BME280;65772;51.096;17.006;2023-02-13T07:13:09;102286.38;;;7.60;74.31
76819;BME280;65772;51.096;17.006;2023-02-13T07:15:37;102285.37;;;7.60;74.37
76819;BME280;65772;51.096;17.006;2023-02-13T07:18:06;102282.82;;;7.60;74.41
76819;BME280;65772;51.096;17.006;2023-02-13T07:20:34;102281.79;;;7.60;74.32
76819;BME280;65772;51.096;17.006;2023-02-13T07:23:04;102277.80;;;7.64;74.10
76819;BME280;65772;51.096;17.006;2023-02-13T07:25:33;102275.29;;;7.64;74.14
76819;BME280;65772;51.096;17.006;2023-02-13T07:28:01;102275.39;;;7.68;74.16
76819;BME280;65772;51.096;17.006;2023-02-13T07:30:30;102276.94;;;7.70;74.20
76819;BME280;65772;51.096;17.006;2023-02-13T07:33:00;102273.21;;;7.73;74.07
76819;BME280;65772;51.096;17.006;2023-02-13T07:35:28;102272.72;;;7.76;74.08
76819;BME280;65772;51.096;17.006;2023-02-13T07:37:57;102271.98;;;7.77;74.06
76819;BME280;65772;51.096;17.006;2023-02-13T07:40:26;102271.45;;;7.79;74.23
76819;BME280;65772;51.096;17.006;2023-02-13T07:42:54;102269.61;;;7.82;74.11
76819;BME280;65772;51.096;17.006;2023-02-13T07:45:23;102271.35;;;7.85;74.09
76819;BME280;65772;51.096;17.006;2023-02-13T07:47:50;102269.33;;;7.88;74.24
76819;BME280;65772;51.096;17.006;2023-02-13T07:50:21;102270.13;;;7.89;74.19
76819;BME280;65772;51.096;17.006;2023-02-13T07:52:53;102268.54;;;7.91;73.92
76819;BME280;65772;51.096;17.006;2023-02-13T07:55:22;102266.19;;;7.91;74.14
76819;BME280;65772;51.096;17.006;2023-02-13T07:57:50;102270.33;;;7.92;74.28
76819;BME280;65772;51.096;17.006;2023-02-13T08:00:21;102272.45;;;7.96;74.25
76819;BME280;65772;51.096;17.006;2023-02-13T08:02:50;102274.25;;;8.02;74.21
76819;BME280;65772;51.096;17.006;2023-02-13T08:05:18;102275.27;;;8.07;74.21
76819;BME280;65772;51.096;17.006;2023-02-13T08:07:45;102273.20;;;8.11;74.07
76819;BME280;65772;51.096;17.006;2023-02-13T08:10:15;102276.05;;;8.15;74.14
76819;BME280;65772;51.096;17.006;2023-02-13T08:13:01;102275.46;;;8.19;73.99
76819;BME280;65772;51.096;17.006;2023-02-13T08:15:29;102279.92;;;8.22;74.04
76819;BME280;65772;51.096;17.006;2023-02-13T08:17:57;102278.52;;;8.24;73.99
76819;BME280;65772;51.096;17.006;2023-02-13T08:20:25;102283.85;;;8.25;74.03
76819;BME280;65772;51.096;17.006;2023-02-13T08:22:53;102282.21;;;8.26;74.14
76819;BME280;65772;51.096;17.006;2023-02-13T08:25:20;102279.66;;;8.25;74.18
76819;BME280;65772;51.096;17.006;2023-02-13T08:27:48;102279.84;;;8.26;74.28
76819;BME280;65772;51.096;17.006;2023-02-13T08:30:16;102280.86;;;8.26;74.39
76819;BME280;65772;51.096;17.006;2023-02-13T08:32:44;102278.59;;;8.20;74.28
76819;BME280;65772;51.096;17.006;2023-02-13T08:35:22;102279.08;;;8.15;74.51
76819;BME280;65772;51.096;17.006;2023-02-13T08:37:52;102276.05;;;8.16;74.80
76819;BME280;65772;51.096;17.006;2023-02-13T08:40:21;102277.95;;;8.16;74.60
76819;BME280;65772;51.096;17.006;2023-02-13T08:42:52;102277.96;;;8.16;74.78
76819;BME280;65772;51.096;17.006;2023-02-13T08:45:25;102279.66;;;8.19;74.76
76819;BME280;65772;51.096;17.006;2023-02-13T08:47:56;102278.10;;;8.20;75.04
76819;BME280;65772;51.096;17.006;2023-02-13T08:50:24;102280.55;;;8.17;74.94
76819;BME280;65772;51.096;17.006;2023-02-13T08:52:53;102279.38;;;8.12;75.27
76819;BME280;65772;51.096;17.006;2023-02-13T08:55:21;102280.07;;;8.04;75.44
76819;BME280;65772;51.096;17.006;2023-02-13T08:57:48;102277.94;;;8.03;75.47
76819;BME280;65772;51.096;17.006;2023-02-13T09:00:17;102271.75;;;8.00;75.60
76819;BME280;65772;51.096;17.006;2023-02-13T09:02:44;102276.96;;;7.99;76.01
76819;BME280;65772;51.096;17.006;2023-02-13T09:05:13;102278.54;;;7.92;75.93
76819;BME280;65772;51.096;17.006;2023-02-13T09:07:41;102279.17;;;7.90;76.10
76819;BME280;65772;51.096;17.006;2023-02-13T09:10:10;102283.13;;;7.92;76.23
76819;BME280;65772;51.096;17.006;2023-02-13T09:12:38;102289.91;;;7.90;76.49
76819;BME280;65772;51.096;17.006;2023-02-13T09:15:07;102288.41;;;7.84;76.55
76819;BME280;65772;51.096;17.006;2023-02-13T09:17:35;102292.47;;;7.81;76.64
76819;BME280;65772;51.096;17.006;2023-02-13T09:20:03;102300.50;;;7.79;76.90
76819;BME280;65772;51.096;17.006;2023-02-13T09:22:32;102301.50;;;7.79;77.03
76819;BME280;65772;51.096;17.006;2023-02-13T09:25:00;102306.75;;;7.76;76.94
76819;BME280;65772;51.096;17.006;2023-02-13T09:27:30;102309.37;;;7.75;76.65
76819;BME280;65772;51.096;17.006;2023-02-13T09:29:59;102309.55;;;7.70;76.48
76819;BME280;65772;51.096;17.006;2023-02-13T09:32:27;102314.65;;;7.67;76.30
76819;BME280;65772;51.096;17.006;2023-02-13T09:34:55;102319.44;;;7.66;75.97
76819;BME280;65772;51.096;17.006;2023-02-13T09:37:23;102320.19;;;7.67;75.85
76819;BME280;65772;51.096;17.006;2023-02-13T09:39:50;102321.55;;;7.71;75.70
76819;BME280;65772;51.096;17.006;2023-02-13T09:42:21;102321.11;;;7.77;75.43
76819;BME280;65772;51.096;17.006;2023-02-13T09:44:52;102324.23;;;7.85;75.37
76819;BME280;65772;51.096;17.006;2023-02-13T09:47:27;102327.88;;;7.91;74.95
76819;BME280;65772;51.096;17.006;2023-02-13T09:50:02;102332.14;;;7.96;74.76
76819;BME280;65772;51.096;17.006;2023-02-13T09:52:33;102330.49;;;7.94;74.58
76819;BME280;65772;51.096;17.006;2023-02-13T09:55:05;102328.45;;;7.94;74.58
76819;BME280;65772;51.096;17.006;2023-02-13T09:57:43;102335.49;;;7.98;74.50
76819;BME280;65772;51.096;17.006;2023-02-13T10:00:17;102333.03;;;7.99;74.33
76819;BME280;65772;51.096;17.006;2023-02-13T10:03:18;102336.59;;;8.01;74.35
76819;BME280;65772;51.096;17.006;2023-02-13T10:05:57;102337.27;;;8.03;74.17
76819;BME280;65772;51.096;17.006;2023-02-13T10:08:37;102339.86;;;8.03;73.88
76819;BME280;65772;51.096;17.006;2023-02-13T10:11:19;102337.55;;;8.12;73.81
76819;BME280;65772;51.096;17.006;2023-02-13T10:14:00;102333.54;;;8.20;73.82
76819;BME280;65772;51.096;17.006;2023-02-13T10:16:35;102327.22;;;8.27;73.61
76819;BME280;65772;51.096;17.006;2023-02-13T10:19:12;102330.20;;;8.30;73.32
76819;BME280;65772;51.096;17.006;2023-02-13T10:21:46;102326.82;;;8.33;73.36
76819;BME280;65772;51.096;17.006;2023-02-13T10:24:27;102331.39;;;8.37;73.00
76819;BME280;65772;51.096;17.006;2023-02-13T10:26:58;102328.02;;;8.35;72.57
76819;BME280;65772;51.096;17.006;2023-02-13T10:29:37;102328.95;;;8.37;72.51
76819;BME280;65772;51.096;17.006;2023-02-13T10:32:29;102325.10;;;8.40;72.07
76819;BME280;65772;51.096;17.006;2023-02-13T10:35:02;102324.13;;;8.46;71.74
76819;BME280;65772;51.096;17.006;2023-02-13T10:37:30;102325.69;;;8.51;71.68
76819;BME280;65772;51.096;17.006;2023-02-13T10:39:59;102320.70;;;8.55;70.77
76819;BME280;65772;51.096;17.006;2023-02-13T10:42:35;102322.83;;;8.56;70.80
76819;BME280;65772;51.096;17.006;2023-02-13T10:45:20;102319.19;;;8.60;70.37
76819;BME280;65772;51.096;17.006;2023-02-13T10:48:06;102317.15;;;8.65;70.21
76819;BME280;65772;51.096;17.006;2023-02-13T10:50:41;102313.08;;;8.65;69.90
76819;BME280;65772;51.096;17.006;2023-02-13T10:53:16;102312.09;;;8.65;69.77
76819;BME280;65772;51.096;17.006;2023-02-13T10:56:11;102313.75;;;8.65;69.80
76819;BME280;65772;51.096;17.006;2023-02-13T10:58:46;102310.02;;;8.61;69.15
76819;BME280;65772;51.096;17.006;2023-02-13T11:01:19;102300.66;;;8.56;68.86
76819;BME280;65772;51.096;17.006;2023-02-13T11:04:02;102300.27;;;8.52;68.97
76819;BME280;65772;51.096;17.006;2023-02-13T11:06:33;102296.82;;;8.49;68.94
76819;BME280;65772;51.096;17.006;2023-02-13T11:09:02;102299.86;;;8.44;69.18
76819;BME280;65772;51.096;17.006;2023-02-13T11:11:34;102302.21;;;8.39;69.09
76819;BME280;65772;51.096;17.006;2023-02-13T11:14:10;102296.84;;;8.35;69.02
76819;BME280;65772;51.096;17.006;2023-02-13T11:16:55;102297.63;;;8.36;68.98
76819;BME280;65772;51.096;17.006;2023-02-13T11:19:31;102299.16;;;8.36;68.91
76819;BME280;65772;51.096;17.006;2023-02-13T11:22:03;102287.69;;;8.38;68.87
76819;BME280;65772;51.096;17.006;2023-02-13T11:24:32;102286.66;;;8.35;68.66
76819;BME280;65772;51.096;17.006;2023-02-13T11:27:02;102284.97;;;8.31;68.51
76819;BME280;65772;51.096;17.006;2023-02-13T11:29:37;102281.26;;;8.27;68.40
76819;BME280;65772;51.096;17.006;2023-02-13T11:32:18;102283.90;;;8.25;68.35
76819;BME280;65772;51.096;17.006;2023-02-13T11:34:47;102277.11;;;8.26;68.74
76819;BME280;65772;51.096;17.006;2023-02-13T11:37:21;102277.43;;;8.28;68.38
76819;BME280;65772;51.096;17.006;2023-02-13T11:39:51;102271.98;;;8.23;68.22
76819;BME280;65772;51.096;17.006;2023-02-13T11:42:23;102270.95;;;8.18;68.16
76819;BME280;65772;51.096;17.006;2023-02-13T11:44:53;102274.15;;;8.15;68.26
76819;BME280;65772;51.096;17.006;2023-02-13T11:47:45;102267.67;;;8.12;68.20
76819;BME280;65772;51.096;17.006;2023-02-13T11:50:19;102267.53;;;8.10;68.14
76819;BME280;65772;51.096;17.006;2023-02-13T11:52:57;102266.88;;;8.08;67.91
76819;BME280;65772;51.096;17.006;2023-02-13T11:55:30;102268.08;;;8.08;68.00
76819;BME280;65772;51.096;17.006;2023-02-13T11:58:00;102273.37;;;8.11;68.27
76819;BME280;65772;51.096;17.006;2023-02-13T12:00:32;102278.45;;;8.16;68.08
76819;BME280;65772;51.096;17.006;2023-02-13T12:03:27;102281.06;;;8.17;67.72
76819;BME280;65772;51.096;17.006;2023-02-13T12:06:05;102276.96;;;8.14;66.95
76819;BME280;65772;51.096;17.006;2023-02-13T12:08:35;102277.14;;;8.12;66.72
76819;BME280;65772;51.096;17.006;2023-02-13T12:11:15;102275.09;;;8.07;66.12
76819;BME280;65772;51.096;17.006;2023-02-13T12:13:48;102273.30;;;8.00;66.16
76819;BME280;65772;51.096;17.006;2023-02-13T12:16:30;102273.77;;;7.97;66.08
76819;BME280;65772;51.096;17.006;2023-02-13T12:19:05;102277.58;;;7.96;66.34
76819;BME280;65772;51.096;17.006;2023-02-13T12:21:46;102279.33;;;7.97;66.23
76819;BME280;65772;51.096;17.006;2023-02-13T12:24:27;102276.30;;;7.98;66.40
76819;BME280;65772;51.096;17.006;2023-02-13T12:27:08;102268.77;;;7.94;66.43
76819;BME280;65772;51.096;17.006;2023-02-13T12:29:56;102270.42;;;7.91;66.57
76819;BME280;65772;51.096;17.006;2023-02-13T12:32:33;102262.80;;;7.94;66.54
76819;BME280;65772;51.096;17.006;2023-02-13T12:35:31;102261.80;;;7.94;66.39
76819;BME280;65772;51.096;17.006;2023-02-13T12:38:06;102262.72;;;7.95;66.32
76819;BME280;65772;51.096;17.006;2023-02-13T12:41:02;102259.79;;;7.97;66.37
76819;BME280;65772;51.096;17.006;2023-02-13T12:46:33;102247.59;;;8.05;66.58
76819;BME280;65772;51.096;17.006;2023-02-13T12:49:16;102251.98;;;8.09;66.55
76819;BME280;65772;51.096;17.006;2023-02-13T12:51:55;102249.58;;;8.09;66.52
76819;BME280;65772;51.096;17.006;2023-02-13T12:54:47;102249.91;;;8.06;65.95
76819;BME280;65772;51.096;17.006;2023-02-13T12:57:37;102254.65;;;8.03;65.94
76819;BME280;65772;51.096;17.006;2023-02-13T13:00:24;102246.89;;;8.04;65.86
76819;BME280;65772;51.096;17.006;2023-02-13T13:03:10;102246.89;;;8.02;65.48
76819;BME280;65772;51.096;17.006;2023-02-13T13:06:15;102246.02;;;8.02;65.56
76819;BME280;65772;51.096;17.006;2023-02-13T13:09:04;102250.73;;;8.01;65.26
76819;BME280;65772;51.096;17.006;2023-02-13T13:11:49;102244.31;;;7.99;64.95
76819;BME280;65772;51.096;17.006;2023-02-13T13:14:28;102239.52;;;7.99;64.75
76819;BME280;65772;51.096;17.006;2023-02-13T13:17:03;102239.49;;;7.99;63.73
76819;BME280;65772;51.096;17.006;2023-02-13T13:19:39;102235.31;;;8.00;63.40
76819;BME280;65772;51.096;17.006;2023-02-13T13:22:13;102235.44;;;7.99;63.21
76819;BME280;65772;51.096;17.006;2023-02-13T13:24:54;102236.48;;;7.99;63.02
76819;BME280;65772;51.096;17.006;2023-02-13T13:27:29;102247.58;;;8.00;62.88